Time;durP1;ratioP1;P1;durP2;ratioP2;P2;SDS_P1;SDS_P2;PMS_P1;PMS_P2;Temp;Humidity;BMP_temperature;BMP_pressure;BME280_temperature;BME280_humidity;BME280_pressure;Samples;Min_cycle;Max_cycle;Signal;HPM_P1;HPM_P2
2023/01/20 00:00:31;;;;;;;6.55;1.85;;;;;;;-146.73;100.00;56421.06;6156568;23;20005;-91
2023/01/20 00:02:59;;;;;;;9.43;2.20;;;;;;;-146.73;100.00;56421.06;6183098;23;20043;-91
2023/01/20 00:05:25;;;;;;;9.45;2.10;;;;;;;-146.73;100.00;56421.06;6182587;23;20013;-91
2023/01/20 00:08:18;;;;;;;9.73;2.03;;;;;;;-146.73;100.00;56421.06;6156128;23;20674;-92
2023/01/20 00:11:02;;;;;;;14.60;2.03;;;;;;;-146.73;100.00;56421.06;6181989;23;20221;-91
2023/01/20 00:13:47;;;;;;;6.85;1.50;;;;;;;-146.73;100.00;56421.06;6119585;23;20017;-91
2023/01/20 00:16:15;;;;;;;6.32;1.55;;;;;;;-146.73;100.00;56421.06;6120293;23;20022;-91
2023/01/20 00:18:43;;;;;;;9.00;1.30;;;;;;;-146.73;100.00;56421.06;6093570;23;20451;-90
2023/01/20 00:21:11;;;;;;;7.53;1.50;;;;;;;-146.73;100.00;56421.06;6118342;23;20013;-91
2023/01/20 00:23:51;;;;;;;;;;;;;;;;;;;;;
2023/01/20 00:26:31;;;;;;;8.57;1.45;;;;;;;-146.73;100.00;56421.06;6025167;23;20403;-92
2023/01/20 00:28:57;;;;;;;7.30;1.70;;;;;;;-146.73;100.00;56421.06;6120756;23;20452;-91
2023/01/20 00:31:28;;;;;;;10.90;2.65;;;;;;;-146.73;100.00;56421.06;6119096;23;20032;-91
2023/01/20 00:33:59;;;;;;;10.27;1.85;;;;;;;-146.73;100.00;56421.06;6119444;23;20009;-90
2023/01/20 00:36:37;;;;;;;7.93;1.58;;;;;;;-146.73;100.00;56421.06;6118230;23;20452;-90
2023/01/20 00:42:18;;;;;;;10.65;1.80;;;;;;;-146.73;100.00;56421.06;6117261;23;20010;-91
2023/01/20 00:47:50;;;;;;;10.15;1.73;;;;;;;-146.73;100.00;56421.06;6104043;23;20028;-92
2023/01/20 00:50:22;;;;;;;7.03;1.92;;;;;;;-146.73;100.00;56421.06;6044191;23;20073;-92
2023/01/20 00:52:51;;;;;;;8.98;1.42;;;;;;;-146.73;100.00;56421.06;6063455;23;20353;-91
2023/01/20 00:55:46;;;;;;;9.65;1.88;;;;;;;-146.73;100.00;56421.06;6089490;23;20022;-91
2023/01/20 00:58:26;;;;;;;10.65;2.53;;;;;;;-146.73;100.00;56421.06;6049372;23;20377;-93
2023/01/20 01:01:02;;;;;;;9.32;1.40;;;;;;;-146.73;100.00;56421.06;6090375;23;20003;-92
2023/01/20 01:03:28;;;;;;;8.10;1.38;;;;;;;-146.73;100.00;56421.06;6065570;23;20093;-92
2023/01/20 01:06:19;;;;;;;15.18;1.88;;;;;;;-146.73;100.00;56421.06;6065702;23;20010;-92
2023/01/20 01:08:55;;;;;;;7.60;1.60;;;;;;;-146.73;100.00;56421.06;6064233;23;20046;-93
2023/01/20 01:11:39;;;;;;;7.90;1.98;;;;;;;-146.73;100.00;56421.06;6061599;23;20044;-92
2023/01/20 01:14:08;;;;;;;11.00;1.70;;;;;;;-146.73;100.00;56421.06;6079654;23;20017;-92
2023/01/20 01:16:36;;;;;;;9.85;2.10;;;;;;;-146.73;100.00;56421.06;6152303;23;20023;-91
2023/01/20 01:19:05;;;;;;;6.88;1.27;;;;;;;-146.73;100.00;56421.06;6151937;23;20067;-92
2023/01/20 01:21:40;;;;;;;8.20;1.63;;;;;;;-146.73;100.00;56421.06;6150652;23;20036;-92
2023/01/20 01:24:18;;;;;;;;;;;;;;;;;;;;;
2023/01/20 01:26:44;;;;;;;8.18;1.38;;;;;;;-146.73;100.00;56421.06;6189394;23;20092;-92
2023/01/20 01:29:12;;;;;;;8.55;1.55;;;;;;;-146.73;100.00;56421.06;6159801;23;20024;-92
2023/01/20 01:31:38;;;;;;;6.32;1.27;;;;;;;-146.73;100.00;56421.06;6179215;23;20020;-92
2023/01/20 01:34:03;;;;;;;11.95;1.42;;;;;;;-146.73;100.00;56421.06;6153784;23;20032;-91
2023/01/20 01:36:29;;;;;;;7.30;1.33;;;;;;;-146.73;100.00;56421.06;6160142;23;20339;-92
2023/01/20 01:39:05;;;;;;;6.80;1.10;;;;;;;-146.73;100.00;56421.06;6189786;23;20019;-92
2023/01/20 01:41:40;;;;;;;6.22;1.17;;;;;;;-146.73;100.00;56421.06;6156093;23;20021;-92
2023/01/20 01:44:25;;;;;;;9.38;1.23;;;;;;;-146.73;100.00;56421.06;6150964;23;20422;-92
2023/01/20 01:47:03;;;;;;;8.82;1.40;;;;;;;-146.73;100.00;56421.06;6154676;23;20343;-92
2023/01/20 01:49:36;;;;;;;7.85;1.45;;;;;;;-146.73;100.00;56421.06;6154693;23;20017;-91
2023/01/20 01:52:42;;;;;;;7.75;1.25;;;;;;;-146.73;100.00;56421.06;6153468;23;20017;-92
2023/01/20 01:55:37;;;;;;;;;;;;;;;;;;;;;
2023/01/20 01:58:11;;;;;;;8.98;1.40;;;;;;;-146.73;100.00;56421.06;6174823;23;20120;-93
2023/01/20 02:01:33;;;;;;;5.78;1.10;;;;;;;-146.73;100.00;56421.06;6153731;23;20035;-92
2023/01/20 02:04:07;;;;;;;7.75;1.38;;;;;;;-146.73;100.00;56421.06;6160928;23;20009;-92
2023/01/20 02:06:40;;;;;;;5.25;1.05;;;;;;;-146.73;100.00;56421.06;6179297;23;20009;-92
2023/01/20 02:09:16;;;;;;;6.45;1.25;;;;;;;-146.73;100.00;56421.06;6152399;23;20008;-92
2023/01/20 02:11:55;;;;;;;7.40;1.48;;;;;;;-146.73;100.00;56421.06;6152408;23;20015;-92
2023/01/20 02:14:35;;;;;;;9.07;1.50;;;;;;;-146.73;100.00;56421.06;6178811;23;20005;-90
2023/01/20 02:17:22;;;;;;;10.93;1.50;;;;;;;-146.73;100.00;56421.06;6152494;23;20039;-90
2023/01/20 02:20:35;;;;;;;;;;;;;;;;;;;;;
2023/01/20 02:23:22;;;;;;;8.43;1.40;;;;;;;-146.73;100.00;56421.06;6172347;23;20121;-91
2023/01/20 02:26:27;;;;;;;8.27;1.23;;;;;;;-146.73;100.00;56421.06;6178385;23;20441;-91
2023/01/20 02:29:23;;;;;;;10.93;1.58;;;;;;;-146.73;100.00;56421.06;6149257;23;20049;-92
2023/01/20 02:32:11;;;;;;;7.57;1.90;;;;;;;-146.73;100.00;56421.06;6146926;23;20033;-93
2023/01/20 02:35:05;;;;;;;7.82;1.40;;;;;;;-146.73;100.00;56421.06;6147988;23;20013;-91
2023/01/20 02:37:52;;;;;;;6.50;1.20;;;;;;;-146.73;100.00;56421.06;6148713;23;20032;-91
2023/01/20 02:40:50;;;;;;;9.55;1.52;;;;;;;-146.73;100.00;56421.06;6145963;23;20037;-92
2023/01/20 02:43:28;;;;;;;9.65;1.52;;;;;;;-146.73;100.00;56421.06;6145263;23;20101;-91
2023/01/20 02:46:19;;;;;;;4.05;1.10;;;;;;;-146.73;100.00;56421.06;6148696;23;20112;-91
2023/01/20 02:49:05;;;;;;;6.88;1.40;;;;;;;-146.73;100.00;56421.06;6146556;23;20097;-91
2023/01/20 02:52:26;;;;;;;9.85;1.40;;;;;;;-146.73;100.00;56421.06;6145613;23;20032;-92
2023/01/20 02:55:08;;;;;;;10.25;1.23;;;;;;;-146.73;100.00;56421.06;6098714;23;20020;-91
2023/01/20 02:57:58;;;;;;;10.25;1.13;;;;;;;-146.73;100.00;56421.06;6147621;23;20013;-92
2023/01/20 03:13:14;;;;;;;9.18;1.63;;;;;;;-146.73;100.00;56421.06;6195657;23;20056;-96
2023/01/20 03:16:27;;;;;;;8.40;2.20;;;;;;;-146.73;100.00;56421.06;6181403;23;20024;-96
2023/01/20 03:19:06;;;;;;;8.80;2.03;;;;;;;-146.73;100.00;56421.06;6198348;22;20009;-96
2023/01/20 03:21:38;;;;;;;8.48;1.88;;;;;;;-146.73;100.00;56421.06;6198929;23;20460;-96
2023/01/20 03:32:33;;;;;;;10.95;1.55;;;;;;;-146.73;100.00;56421.06;6192300;22;20029;-96
2023/01/20 03:35:00;;;;;;;8.00;1.50;;;;;;;-146.73;100.00;56421.06;6191208;23;20083;-96
2023/01/20 03:37:29;;;;;;;10.55;1.98;;;;;;;-146.73;100.00;56421.06;6190241;23;20358;-96
2023/01/20 03:39:58;;;;;;;13.07;1.90;;;;;;;-146.73;100.00;56421.06;6189797;23;20088;-96
2023/01/20 03:46:24;;;;;;;10.25;1.50;;;;;;;-146.73;100.00;56421.06;6189680;23;20059;-96
2023/01/20 03:49:46;;;;;;;7.25;2.08;;;;;;;-146.73;100.00;56421.06;6169185;23;20070;-96
2023/01/20 03:52:57;;;;;;;8.40;1.40;;;;;;;-146.73;100.00;56421.06;6086411;23;20019;-96
2023/01/20 03:56:04;;;;;;;8.57;1.40;;;;;;;-146.73;100.00;56421.06;6087892;23;20006;-96
2023/01/20 03:58:55;;;;;;;8.98;1.50;;;;;;;-146.73;100.00;56421.06;6113984;23;20013;-96
2023/01/20 04:01:35;;;;;;;8.13;1.38;;;;;;;-146.73;100.00;56421.06;6086203;23;20010;-95
2023/01/20 04:04:13;;;;;;;6.38;1.50;;;;;;;-146.73;100.00;56421.06;6115906;23;20006;-96
2023/01/20 04:06:51;;;;;;;6.35;1.17;;;;;;;-146.73;100.00;56421.06;6112668;23;20070;-95
2023/01/20 04:09:32;;;;;;;8.43;1.33;;;;;;;-146.73;100.00;56421.06;6092927;23;20017;-96
2023/01/20 04:12:03;;;;;;;9.93;1.52;;;;;;;-146.73;100.00;56421.06;6118534;23;19994;-96
2023/01/20 04:14:34;;;;;;;9.45;1.67;;;;;;;-146.73;100.00;56421.06;6114486;23;20013;-95
2023/01/20 04:17:04;;;;;;;6.60;1.40;;;;;;;-146.73;100.00;56421.06;6114042;23;20007;-96
2023/01/20 04:19:45;;;;;;;7.47;1.17;;;;;;;-146.73;100.00;56421.06;6085060;23;20105;-96
2023/01/20 04:22:36;;;;;;;8.55;1.02;;;;;;;-146.73;100.00;56421.06;6116658;23;20018;-96
2023/01/20 04:25:12;;;;;;;5.55;1.00;;;;;;;-146.73;100.00;56421.06;6090537;23;20031;-96
2023/01/20 04:27:39;;;;;;;7.13;1.40;;;;;;;-146.73;100.00;56421.06;6103111;23;19993;-95
2023/01/20 04:30:11;;;;;;;7.57;1.40;;;;;;;-146.73;100.00;56421.06;6207553;23;20023;-95
2023/01/20 04:32:40;;;;;;;6.68;0.98;;;;;;;-146.73;100.00;56421.06;6211033;23;20025;-95
2023/01/20 04:35:18;;;;;;;10.80;1.45;;;;;;;-146.73;100.00;56421.06;6213403;23;20016;-96
2023/01/20 04:43:29;;;;;;;9.18;1.33;;;;;;;-146.73;100.00;56421.06;6192594;22;20041;-95
2023/01/20 04:46:04;;;;;;;;;;;;;;;-146.73;100.00;56421.06;6212194;23;20024;-95
2023/01/20 04:51:35;;;;;;;7.00;1.25;;;;;;;-146.73;100.00;56421.06;6225512;22;20008;-95
2023/01/20 04:54:50;;;;;;;6.53;1.40;;;;;;;-146.73;100.00;56421.06;6184018;23;20029;-96
2023/01/20 04:57:51;;;;;;;8.05;1.30;;;;;;;-146.73;100.00;56421.06;6207118;23;20001;-95
2023/01/20 05:00:26;;;;;;;9.50;1.40;;;;;;;-146.73;100.00;56421.06;6178505;23;20096;-96
2023/01/20 05:02:52;;;;;;;8.48;1.20;;;;;;;-146.73;100.00;56421.06;6176859;23;20024;-96
2023/01/20 05:05:25;;;;;;;6.95;1.23;;;;;;;-146.73;100.00;56421.06;6179751;23;20084;-96
2023/01/20 05:08:13;;;;;;;;;;;;;;;-146.73;100.00;56421.06;6181119;23;19997;-96
2023/01/20 05:10:50;;;;;;;10.35;1.50;;;;;;;-146.73;100.00;56421.06;6181525;23;19908;-96
2023/01/20 05:19:03;;;;;;;5.07;1.10;;;;;;;-146.73;100.00;56421.06;6227845;23;20021;-96
2023/01/20 05:21:46;;;;;;;6.63;0.98;;;;;;;-146.73;100.00;56421.06;6202701;23;20171;-96
2023/01/20 05:24:23;;;;;;;7.82;1.30;;;;;;;-146.73;100.00;56421.06;6199619;23;20035;-96
2023/01/20 05:27:07;;;;;;;7.43;1.27;;;;;;;-146.73;100.00;56421.06;6199570;23;20005;-95
2023/01/20 05:48:53;;;;;;;;;;;;;;;-146.73;100.00;56421.06;6156768;23;20438;-95
2023/01/20 05:51:27;;;;;;;7.38;0.88;;;;;;;-146.73;100.00;56421.06;6195440;23;19923;-95
2023/01/20 05:53:54;;;;;;;5.22;0.77;;;;;;;-146.73;100.00;56421.06;6205006;23;20005;-96
2023/01/20 05:56:21;;;;;;;8.20;1.13;;;;;;;-146.73;100.00;56421.06;6231637;23;19996;-96
2023/01/20 05:58:52;;;;;;;17.70;1.30;;;;;;;-146.73;100.00;56421.06;6191822;23;20102;-96
2023/01/20 06:04:14;;;;;;;8.32;1.08;;;;;;;-146.73;100.00;56421.06;6196421;22;20455;-96
2023/01/20 06:06:46;;;;;;;4.60;0.98;;;;;;;-146.73;100.00;56421.06;6194341;23;20013;-96
2023/01/20 06:09:41;;;;;;;7.75;1.13;;;;;;;-146.73;100.00;56421.06;6195240;23;20017;-96
2023/01/20 06:12:09;;;;;;;4.80;0.85;;;;;;;-146.73;100.00;56421.06;6189351;23;20081;-96
2023/01/20 06:14:39;;;;;;;5.65;0.85;;;;;;;-146.73;100.00;56421.06;6189157;23;20695;-96
2023/01/20 06:17:09;;;;;;;5.15;0.85;;;;;;;-146.73;100.00;56421.06;6192046;23;20013;-96
2023/01/20 06:20:05;;;;;;;7.45;1.20;;;;;;;-146.73;100.00;56421.06;6190124;23;20020;-96
2023/01/20 06:22:31;;;;;;;5.38;1.10;;;;;;;-146.73;100.00;56421.06;6189865;23;20009;-96
2023/01/20 06:25:10;;;;;;;4.85;1.00;;;;;;;-146.73;100.00;56421.06;6190081;23;20071;-96
2023/01/20 06:27:39;;;;;;;33.08;3.25;;;;;;;-146.73;100.00;56421.06;6189438;23;20036;-96
2023/01/20 06:30:11;;;;;;;8.00;1.05;;;;;;;-146.73;100.00;56421.06;6192844;23;20009;-96
2023/01/20 06:32:37;;;;;;;9.13;1.30;;;;;;;-146.73;100.00;56421.06;6189222;23;20017;-96
2023/01/20 06:35:05;;;;;;;6.38;0.80;;;;;;;-146.73;100.00;56421.06;6188751;23;20004;-95
2023/01/20 06:37:32;;;;;;;5.35;0.93;;;;;;;-146.73;100.00;56421.06;6188311;23;20017;-96
2023/01/20 06:40:00;;;;;;;5.45;1.15;;;;;;;-146.73;100.00;56421.06;6189048;23;20036;-95
2023/01/20 06:42:29;;;;;;;4.63;0.70;;;;;;;-146.73;100.00;56421.06;6189706;23;20474;-95
2023/01/20 06:45:02;;;;;;;7.95;1.23;;;;;;;-146.73;100.00;56421.06;6191068;23;20260;-95
2023/01/20 06:47:40;;;;;;;4.68;0.90;;;;;;;-146.73;100.00;56421.06;6189968;23;20434;-96
2023/01/20 06:50:12;;;;;;;6.57;0.90;;;;;;;-146.73;100.00;56421.06;6192697;23;20087;-96
2023/01/20 06:52:41;;;;;;;8.57;1.15;;;;;;;-146.73;100.00;56421.06;6189611;23;20048;-95
2023/01/20 06:55:12;;;;;;;5.88;1.20;;;;;;;-146.73;100.00;56421.06;6189276;23;20008;-95
2023/01/20 06:57:44;;;;;;;5.13;0.80;;;;;;;-146.73;100.00;56421.06;6192429;23;20399;-96
2023/01/20 07:00:16;;;;;;;4.55;0.90;;;;;;;-146.73;100.00;56421.06;6188185;23;20013;-95
2023/01/20 07:02:42;;;;;;;7.57;1.10;;;;;;;-146.73;100.00;56421.06;6185231;23;20020;-95
2023/01/20 07:05:09;;;;;;;5.75;1.00;;;;;;;-146.73;100.00;56421.06;6184570;23;20390;-95
2023/01/20 07:07:50;;;;;;;4.85;1.00;;;;;;;-146.73;100.00;56421.06;6138104;23;20079;-95
2023/01/20 07:10:15;;;;;;;5.32;0.88;;;;;;;-146.73;100.00;56421.06;6183682;23;20004;-96
2023/01/20 07:12:41;;;;;;;4.68;0.80;;;;;;;-146.73;100.00;56421.06;6184860;23;20045;-95
2023/01/20 07:15:11;;;;;;;5.40;0.80;;;;;;;-146.73;100.00;56421.06;6184308;23;20012;-96
2023/01/20 07:17:36;;;;;;;4.47;0.80;;;;;;;-146.73;100.00;56421.06;6183739;23;20077;-96
2023/01/20 07:20:02;;;;;;;7.32;1.00;;;;;;;-146.73;100.00;56421.06;6183065;23;20034;-95
2023/01/20 07:22:31;;;;;;;7.00;1.00;;;;;;;-146.73;100.00;56421.06;6183425;23;20092;-96
2023/01/20 07:24:56;;;;;;;4.88;0.90;;;;;;;-146.73;100.00;56421.06;6183743;23;20013;-95
2023/01/20 07:27:22;;;;;;;2.75;0.63;;;;;;;-146.73;100.00;56421.06;6183112;23;20016;-95
2023/01/20 07:29:47;;;;;;;7.40;1.02;;;;;;;-146.73;100.00;56421.06;6183000;23;20375;-95
2023/01/20 07:32:14;;;;;;;6.35;1.00;;;;;;;-146.73;100.00;56421.06;6184879;23;20035;-95
2023/01/20 07:34:39;;;;;;;8.32;0.82;;;;;;;-146.73;100.00;56421.06;6183996;23;20016;-96
2023/01/20 07:37:05;;;;;;;6.15;0.95;;;;;;;-146.73;100.00;56421.06;6183222;23;20009;-96
2023/01/20 07:39:30;;;;;;;9.63;0.93;;;;;;;-146.73;100.00;56421.06;6185637;23;20031;-95
2023/01/20 07:41:56;;;;;;;4.78;0.77;;;;;;;-146.73;100.00;56421.06;6186216;23;20005;-95
2023/01/20 07:44:22;;;;;;;5.07;0.70;;;;;;;-146.73;100.00;56421.06;6187421;23;20016;-95
2023/01/20 07:46:50;;;;;;;4.97;0.70;;;;;;;-146.73;100.00;56421.06;6188902;23;20070;-95
2023/01/20 07:49:15;;;;;;;5.18;0.80;;;;;;;-146.73;100.00;56421.06;6190758;23;20300;-96
2023/01/20 07:51:42;;;;;;;4.47;0.88;;;;;;;-146.73;100.00;56421.06;6187384;23;20020;-95
2023/01/20 07:54:10;;;;;;;7.07;0.82;;;;;;;-146.73;100.00;56421.06;6185957;23;20674;-95
2023/01/20 07:56:49;;;;;;;6.05;0.88;;;;;;;-146.73;100.00;56421.06;6185894;23;20064;-96
2023/01/20 07:59:14;;;;;;;7.15;1.05;;;;;;;-146.73;100.00;56421.06;6182224;23;20099;-92
2023/01/20 08:01:42;;;;;;;5.03;0.80;;;;;;;-146.73;100.00;56421.06;6180692;23;20036;-93
2023/01/20 08:04:07;;;;;;;3.92;0.75;;;;;;;-146.73;100.00;56421.06;6181309;23;20017;-92
2023/01/20 08:06:33;;;;;;;3.75;0.88;;;;;;;-146.73;100.00;56421.06;6179732;23;20008;-93
2023/01/20 08:09:02;;;;;;;7.80;1.08;;;;;;;-146.73;100.00;56421.06;6177686;23;20108;-93
2023/01/20 08:11:28;;;;;;;3.95;0.80;;;;;;;-146.73;100.00;56421.06;6178828;23;20017;-93
2023/01/20 08:13:54;;;;;;;5.70;0.70;;;;;;;-146.73;100.00;56421.06;6177964;23;20005;-93
2023/01/20 08:16:27;;;;;;;2.85;0.57;;;;;;;-146.73;100.00;56421.06;6180631;23;20012;-94
2023/01/20 08:18:53;;;;;;;4.55;0.75;;;;;;;-146.73;100.00;56421.06;6181682;23;20079;-95
2023/01/20 08:21:29;;;;;;;9.30;0.80;;;;;;;-146.73;100.00;56421.06;6180772;23;20040;-94
2023/01/20 08:23:57;;;;;;;6.15;0.95;;;;;;;-146.73;100.00;56421.06;6180900;23;20012;-91
2023/01/20 08:26:38;;;;;;;5.07;0.90;;;;;;;-146.73;100.00;56421.06;6183909;23;20005;-93
2023/01/20 08:29:07;;;;;;;5.07;0.63;;;;;;;-146.73;100.00;56421.06;6183835;23;20032;-94
2023/01/20 08:31:33;;;;;;;4.90;0.80;;;;;;;-146.73;100.00;56421.06;6182946;23;20037;-94
2023/01/20 08:33:59;;;;;;;3.33;0.65;;;;;;;-146.73;100.00;56421.06;6181340;23;20226;-95
2023/01/20 08:36:34;;;;;;;4.70;0.73;;;;;;;-146.73;100.00;56421.06;6183276;23;20043;-95
2023/01/20 08:39:09;;;;;;;7.43;0.77;;;;;;;-146.73;100.00;56421.06;6186617;23;20009;-96
2023/01/20 08:41:43;;;;;;;6.63;0.93;;;;;;;-146.73;100.00;56421.06;6180570;23;20009;-96
2023/01/20 08:44:12;;;;;;;6.72;1.00;;;;;;;-146.73;100.00;56421.06;6185471;23;20013;-96
2023/01/20 08:46:43;;;;;;;6.63;1.00;;;;;;;-146.73;100.00;56421.06;6180521;23;20009;-94
2023/01/20 08:49:13;;;;;;;4.93;0.80;;;;;;;-146.73;100.00;56421.06;6182370;23;20426;-95
2023/01/20 08:51:39;;;;;;;5.95;0.70;;;;;;;-146.73;100.00;56421.06;6183775;23;20025;-95
2023/01/20 08:54:05;;;;;;;5.72;0.80;;;;;;;-146.73;100.00;56421.06;6183608;23;20040;-95
2023/01/20 08:56:35;;;;;;;5.47;0.80;;;;;;;-146.73;100.00;56421.06;6184263;23;19993;-94
2023/01/20 08:59:07;;;;;;;3.55;0.63;;;;;;;-146.73;100.00;56421.06;6183548;23;20681;-96
2023/01/20 09:01:36;;;;;;;5.32;0.70;;;;;;;-146.73;100.00;56421.06;6186392;23;20020;-96
2023/01/20 09:04:04;;;;;;;2.95;0.60;;;;;;;-146.73;100.00;56421.06;6185767;23;20012;-96
2023/01/20 09:06:49;;;;;;;4.80;0.77;;;;;;;-146.73;100.00;56421.06;6186298;23;20017;-96
2023/01/20 09:09:16;;;;;;;4.80;0.70;;;;;;;-146.73;100.00;56421.06;6182470;23;20016;-96
2023/01/20 09:11:49;;;;;;;3.70;0.68;;;;;;;-146.73;100.00;56421.06;6182023;23;20004;-96
2023/01/20 09:14:19;;;;;;;5.65;0.80;;;;;;;-146.73;100.00;56421.06;6185036;23;20001;-96
2023/01/20 09:16:49;;;;;;;3.35;0.60;;;;;;;-146.73;100.00;56421.06;6187699;23;20033;-96
2023/01/20 09:19:15;;;;;;;5.88;0.70;;;;;;;-146.73;100.00;56421.06;6184942;23;20016;-95
2023/01/20 09:21:41;;;;;;;6.05;0.80;;;;;;;-146.73;100.00;56421.06;6184520;23;20107;-96
2023/01/20 09:24:08;;;;;;;3.92;0.50;;;;;;;-146.73;100.00;56421.06;6183973;23;20088;-96
2023/01/20 09:26:38;;;;;;;8.38;1.05;;;;;;;-146.73;100.00;56421.06;6184608;23;20439;-96
2023/01/20 09:29:13;;;;;;;5.47;0.80;;;;;;;-146.73;100.00;56421.06;6184507;23;20068;-96
2023/01/20 09:31:44;;;;;;;6.35;1.02;;;;;;;-146.73;100.00;56421.06;6185151;23;20021;-96
2023/01/20 09:34:17;;;;;;;6.57;1.10;;;;;;;-146.73;100.00;56421.06;6185184;23;20013;-96
2023/01/20 09:36:52;;;;;;;5.90;0.85;;;;;;;-146.73;100.00;56421.06;6186146;23;20092;-96
2023/01/20 09:46:00;;;;;;;5.50;0.60;;;;;;;-146.73;100.00;56421.06;6188062;23;20024;-96
2023/01/20 09:55:13;;;;;;;6.28;0.77;;;;;;;-146.73;100.00;56421.06;6184628;23;20487;-96
2023/01/20 09:57:48;;;;;;;5.85;0.88;;;;;;;-146.73;100.00;56421.06;6184155;23;20008;-96
2023/01/20 10:00:20;;;;;;;5.13;0.80;;;;;;;-146.73;100.00;56421.06;6182294;23;20096;-96
2023/01/20 10:03:01;;;;;;;7.77;0.80;;;;;;;-146.73;100.00;56421.06;6183740;23;20021;-96
2023/01/20 10:05:38;;;;;;;4.90;0.95;;;;;;;-146.73;100.00;56421.06;6182143;23;20357;-96
2023/01/20 10:08:20;;;;;;;7.05;0.90;;;;;;;-146.73;100.00;56421.06;6182309;23;20096;-96
2023/01/20 10:11:09;;;;;;;5.38;0.73;;;;;;;-146.73;100.00;56421.06;6183725;23;20320;-96
2023/01/20 10:13:46;;;;;;;4.20;0.75;;;;;;;-146.73;100.00;56421.06;6180900;23;20070;-96
2023/01/20 10:16:26;;;;;;;5.20;0.85;;;;;;;-146.73;100.00;56421.06;6183246;23;20015;-96
2023/01/20 10:19:01;;;;;;;5.10;0.73;;;;;;;-146.73;100.00;56421.06;6183408;23;20059;-96
2023/01/20 10:21:34;;;;;;;5.70;0.90;;;;;;;-146.73;100.00;56421.06;6183546;23;20071;-96
2023/01/20 10:24:17;;;;;;;4.75;0.75;;;;;;;-146.73;100.00;56421.06;6184094;23;20021;-96
2023/01/20 10:26:52;;;;;;;7.65;0.82;;;;;;;-146.73;100.00;56421.06;6181289;23;20005;-96
2023/01/20 10:29:36;;;;;;;5.35;0.80;;;;;;;-146.73;100.00;56421.06;6182725;23;20200;-96
2023/01/20 10:32:05;;;;;;;;;;;;;;;-146.73;100.00;56421.06;6181832;23;20021;-94
2023/01/20 10:34:45;;;;;;;6.22;0.95;;;;;;;-146.73;100.00;56421.06;6182911;23;20322;-96
2023/01/20 10:37:22;;;;;;;3.92;0.73;;;;;;;-146.73;100.00;56421.06;6182457;23;19997;-96
2023/01/20 10:39:51;;;;;;;5.95;0.90;;;;;;;-146.73;100.00;56421.06;6182124;23;20016;-96
2023/01/20 10:42:20;;;;;;;4.55;0.85;;;;;;;-146.73;100.00;56421.06;6180202;23;20350;-96
2023/01/20 10:44:52;;;;;;;7.38;1.10;;;;;;;-146.73;100.00;56421.06;6181675;23;20009;-95
2023/01/20 10:47:32;;;;;;;4.55;0.68;;;;;;;-146.73;100.00;56421.06;6183493;23;20033;-95
2023/01/20 10:50:33;;;;;;;8.40;1.50;;;;;;;-146.73;100.00;56421.06;6183127;23;20060;-95
2023/01/20 10:53:47;;;;;;;5.07;0.80;;;;;;;-146.73;100.00;56421.06;6184303;23;20088;-94
2023/01/20 10:56:17;;;;;;;4.40;0.80;;;;;;;-146.73;100.00;56421.06;6183658;23;20009;-94
2023/01/20 10:58:55;;;;;;;8.60;0.85;;;;;;;-146.73;100.00;56421.06;6183965;23;20016;-96
2023/01/20 11:01:26;;;;;;;3.70;0.80;;;;;;;-146.73;100.00;56421.06;6183166;23;20446;-95
2023/01/20 11:03:52;;;;;;;8.02;1.10;;;;;;;-146.73;100.00;56421.06;6182691;23;20021;-96
2023/01/20 11:06:21;;;;;;;4.00;0.75;;;;;;;-146.73;100.00;56421.06;6183385;23;20474;-96
2023/01/20 11:08:47;;;;;;;4.20;0.70;;;;;;;-146.73;100.00;56421.06;6183082;23;20055;-96
2023/01/20 11:11:36;;;;;;;5.40;0.73;;;;;;;-146.73;100.00;56421.06;6182730;23;20017;-96
2023/01/20 11:14:07;;;;;;;5.25;0.68;;;;;;;-146.73;100.00;56421.06;6153305;23;20017;-94
2023/01/20 11:16:36;;;;;;;6.78;1.00;;;;;;;-146.73;100.00;56421.06;6182686;23;20087;-95
2023/01/20 11:19:07;;;;;;;7.60;0.90;;;;;;;-146.73;100.00;56421.06;6183146;23;20009;-96
2023/01/20 11:21:42;;;;;;;4.07;0.80;;;;;;;-146.73;100.00;56421.06;6182939;23;20398;-96
2023/01/20 11:24:42;;;;;;;5.68;0.82;;;;;;;-146.73;100.00;56421.06;6182887;23;20612;-96
2023/01/20 11:27:15;;;;;;;4.90;0.57;;;;;;;-146.73;100.00;56421.06;6177361;23;20009;-96
2023/01/20 11:29:48;;;;;;;7.63;0.80;;;;;;;-146.73;100.00;56421.06;6182853;23;20055;-96
2023/01/20 11:32:26;;;;;;;7.63;0.90;;;;;;;-146.73;100.00;56421.06;6182851;23;20005;-96
2023/01/20 11:34:55;;;;;;;5.25;0.60;;;;;;;-146.73;100.00;56421.06;6183023;23;20704;-96
2023/01/20 11:37:27;;;;;;;3.63;0.65;;;;;;;-146.73;100.00;56421.06;6182431;23;20036;-96
2023/01/20 11:40:14;;;;;;;7.30;1.10;;;;;;;-146.73;100.00;56421.06;6183603;23;20017;-96
2023/01/20 11:42:45;;;;;;;6.70;1.13;;;;;;;-146.73;100.00;56421.06;6181656;23;20040;-96
2023/01/20 11:45:29;;;;;;;7.63;1.25;;;;;;;-146.73;100.00;56421.06;6182814;23;20447;-95
2023/01/20 11:48:16;;;;;;;5.97;0.75;;;;;;;-146.73;100.00;56421.06;6184873;23;20005;-95
2023/01/20 11:51:03;;;;;;;8.05;1.05;;;;;;;-146.73;100.00;56421.06;6184080;23;20047;-96
2023/01/20 11:53:35;;;;;;;9.57;1.35;;;;;;;-146.73;100.00;56421.06;6184606;23;20012;-96
2023/01/20 11:56:23;;;;;;;7.90;1.05;;;;;;;-146.73;100.00;56421.06;6183857;23;20012;-96
2023/01/20 11:58:54;;;;;;;6.45;1.08;;;;;;;-146.73;100.00;56421.06;6184862;23;20017;-95
2023/01/20 12:02:02;;;;;;;4.85;0.60;;;;;;;-146.73;100.00;56421.06;6184964;23;20112;-94
2023/01/20 12:04:51;;;;;;;5.45;1.08;;;;;;;-146.73;100.00;56421.06;6181023;23;20036;-95
2023/01/20 12:07:23;;;;;;;5.03;0.73;;;;;;;-146.73;100.00;56421.06;6182192;23;20014;-95
2023/01/20 12:09:53;;;;;;;7.97;0.90;;;;;;;-146.73;100.00;56421.06;6183176;23;20181;-95
2023/01/20 12:12:50;;;;;;;4.80;0.90;;;;;;;-146.73;100.00;56421.06;6182772;23;20316;-96
2023/01/20 12:15:23;;;;;;;3.38;0.60;;;;;;;-146.73;100.00;56421.06;6182685;23;20005;-95
2023/01/20 12:18:02;;;;;;;7.07;0.98;;;;;;;-146.73;100.00;56421.06;6183052;23;20085;-95
2023/01/20 12:20:39;;;;;;;7.68;1.10;;;;;;;-146.73;100.00;56421.06;6184742;23;20030;-94
2023/01/20 12:23:19;;;;;;;6.43;1.00;;;;;;;-146.73;100.00;56421.06;6182462;23;20012;-96
2023/01/20 12:25:55;;;;;;;5.78;0.90;;;;;;;-146.73;100.00;56421.06;6182747;23;20063;-95
2023/01/20 12:28:40;;;;;;;5.85;0.80;;;;;;;-146.73;100.00;56421.06;6183017;23;20009;-95
2023/01/20 12:31:09;;;;;;;8.77;0.98;;;;;;;-146.73;100.00;56421.06;6185759;23;20013;-95
2023/01/20 12:33:44;;;;;;;5.78;0.60;;;;;;;-146.73;100.00;56421.06;6184694;23;20076;-96
2023/01/20 12:36:32;;;;;;;5.57;0.98;;;;;;;-146.73;100.00;56421.06;6185878;23;20001;-95
2023/01/20 12:39:13;;;;;;;4.60;0.90;;;;;;;-146.73;100.00;56421.06;6184828;23;20048;-95
2023/01/20 12:42:09;;;;;;;6.57;0.93;;;;;;;-146.73;100.00;56421.06;6184291;23;20055;-95
2023/01/20 12:44:44;;;;;;;3.63;0.75;;;;;;;-146.73;100.00;56421.06;6186558;23;20020;-96
2023/01/20 12:47:24;;;;;;;7.25;1.10;;;;;;;-146.73;100.00;56421.06;6187184;23;20023;-95
2023/01/20 12:50:25;;;;;;;8.38;0.90;;;;;;;-146.73;100.00;56421.06;6185577;23;20067;-96
2023/01/20 12:53:16;;;;;;;6.65;0.80;;;;;;;-146.73;100.00;56421.06;6184598;23;20012;-95
2023/01/20 12:55:55;;;;;;;5.90;0.95;;;;;;;-146.73;100.00;56421.06;6188363;23;20334;-96
2023/01/20 12:59:12;;;;;;;6.75;1.00;;;;;;;-146.73;100.00;56421.06;6185065;23;20074;-96
2023/01/20 13:01:46;;;;;;;7.90;0.95;;;;;;;-146.73;100.00;56421.06;6128537;23;20141;-96
2023/01/20 13:04:48;;;;;;;7.95;1.05;;;;;;;-146.73;100.00;56421.06;6184761;23;20451;-96
2023/01/20 13:07:17;;;;;;;4.78;0.95;;;;;;;-146.73;100.00;56421.06;6184292;23;20106;-96
2023/01/20 13:10:08;;;;;;;5.25;0.90;;;;;;;-146.73;100.00;56421.06;6185136;23;20012;-95
2023/01/20 13:12:49;;;;;;;6.50;1.20;;;;;;;-146.73;100.00;56421.06;6184052;23;20015;-96
2023/01/20 13:15:27;;;;;;;5.32;0.70;;;;;;;-146.73;100.00;56421.06;6185569;23;20004;-96
2023/01/20 13:18:24;;;;;;;6.78;1.02;;;;;;;-146.73;100.00;56421.06;6184994;23;20009;-96